createdAt,value
2019-03-28T00:01:52.790Z,8.26
2019-03-28T00:03:57.042Z,8.27
2019-03-28T00:06:01.301Z,8.29
2019-03-28T00:08:05.717Z,8.28
2019-03-28T00:10:10.236Z,8.27
2019-03-28T00:12:15.116Z,8.25
2019-03-28T00:14:19.409Z,8.23
2019-03-28T00:16:23.744Z,8.20
2019-03-28T00:18:28.255Z,8.18
2019-03-28T00:20:32.508Z,8.15
2019-03-28T00:22:47.508Z,8.10
2019-03-28T00:24:59.532Z,8.07
2019-03-28T00:27:03.790Z,8.01
2019-03-28T00:29:08.034Z,7.97
2019-03-28T00:31:12.326Z,7.94
2019-03-28T00:33:16.554Z,7.88
2019-03-28T00:35:20.813Z,7.84
2019-03-28T00:37:25.053Z,7.77
2019-03-28T00:39:29.310Z,7.68
2019-03-28T00:41:33.594Z,7.60
2019-03-28T00:43:37.836Z,7.58
2019-03-28T00:45:44.933Z,7.52
2019-03-28T00:47:49.241Z,7.47
2019-03-28T00:49:53.523Z,7.41
2019-03-28T00:51:57.778Z,7.36
2019-03-28T00:54:02.027Z,7.30
2019-03-28T00:56:06.373Z,7.25
2019-03-28T00:58:10.633Z,7.19
2019-03-28T01:00:15.885Z,7.15
2019-03-28T01:02:20.228Z,7.11
2019-03-28T01:04:24.499Z,7.09
2019-03-28T01:06:28.823Z,7.08
2019-03-28T01:08:33.060Z,7.07
2019-03-28T01:10:37.375Z,7.05
2019-03-28T01:12:41.709Z,7.01
2019-03-28T01:14:45.973Z,6.93
2019-03-28T01:16:50.242Z,6.88
2019-03-28T01:18:54.518Z,6.89
2019-03-28T01:20:58.941Z,6.92
2019-03-28T01:23:03.214Z,6.96
2019-03-28T01:25:07.648Z,6.95
2019-03-28T01:27:11.879Z,6.91
2019-03-28T01:29:16.129Z,6.87
2019-03-28T01:31:20.397Z,6.83
2019-03-28T01:33:24.942Z,6.81
2019-03-28T01:35:29.179Z,6.75
2019-03-28T01:37:33.413Z,6.70
2019-03-28T01:39:37.823Z,6.67
2019-03-28T01:41:42.082Z,6.61
2019-03-28T01:43:46.304Z,6.53
2019-03-28T01:45:51.000Z,6.53
2019-03-28T01:47:55.241Z,6.59
2019-03-28T01:49:59.482Z,6.64
2019-03-28T01:52:04.370Z,6.62
2019-03-28T01:54:08.837Z,6.59
2019-03-28T01:56:13.112Z,6.53
2019-03-28T01:58:17.382Z,6.47
2019-03-28T02:00:21.729Z,6.43
2019-03-28T02:02:25.971Z,6.42
2019-03-28T02:04:30.201Z,6.40
2019-03-28T02:06:34.481Z,6.40
2019-03-28T02:08:38.698Z,6.40
2019-03-28T02:10:42.952Z,6.38
2019-03-28T02:12:47.208Z,6.38
2019-03-28T02:14:51.454Z,6.44
2019-03-28T02:16:55.730Z,6.53
2019-03-28T02:18:59.978Z,6.59
2019-03-28T02:21:04.242Z,6.56
2019-03-28T02:23:08.467Z,6.53
2019-03-28T02:25:12.992Z,6.48
2019-03-28T02:27:23.984Z,6.45
2019-03-28T02:29:23.274Z,6.48
2019-03-28T02:31:27.837Z,6.53
2019-03-28T02:33:32.225Z,6.53
2019-03-28T02:35:37.503Z,6.51
2019-03-28T02:37:41.801Z,6.54
2019-03-28T02:39:46.037Z,6.56
2019-03-28T02:41:50.345Z,6.50
2019-03-28T02:43:55.426Z,6.44
2019-03-28T02:45:59.770Z,6.37
2019-03-28T02:48:04.098Z,6.31
2019-03-28T02:50:08.445Z,6.23
2019-03-28T02:52:12.690Z,6.18
2019-03-28T02:54:16.940Z,6.14
2019-03-28T02:56:21.325Z,6.12
2019-03-28T02:58:25.565Z,6.15
2019-03-28T03:00:29.877Z,6.24
2019-03-28T03:02:34.244Z,6.29
2019-03-28T03:04:38.513Z,6.36
2019-03-28T03:06:42.763Z,6.39
2019-03-28T03:08:47.006Z,6.46
2019-03-28T03:10:51.244Z,6.51
2019-03-28T03:12:55.517Z,6.49
2019-03-28T03:14:59.775Z,6.44
2019-03-28T03:17:04.075Z,6.41
2019-03-28T03:19:08.570Z,6.38
2019-03-28T03:21:12.904Z,6.34
2019-03-28T03:23:17.265Z,6.30
2019-03-28T03:25:21.546Z,6.26
2019-03-28T03:27:25.812Z,6.24
2019-03-28T03:29:30.871Z,6.22
2019-03-28T03:31:35.209Z,6.22
2019-03-28T03:33:39.465Z,6.24
2019-03-28T03:35:43.784Z,6.25
2019-03-28T03:37:48.025Z,6.24
2019-03-28T03:39:52.262Z,6.24
2019-03-28T03:41:56.517Z,6.23
2019-03-28T03:44:00.764Z,6.21
2019-03-28T03:46:05.260Z,6.23
2019-03-28T03:48:09.503Z,6.22
2019-03-28T03:50:22.443Z,6.21
2019-03-28T03:52:26.827Z,6.20
2019-03-28T03:54:31.072Z,6.17
2019-03-28T03:56:35.409Z,6.17
2019-03-28T03:58:39.813Z,6.16
2019-03-28T04:00:44.183Z,6.15
2019-03-28T04:02:48.458Z,6.13
2019-03-28T04:04:56.371Z,6.16
2019-03-28T04:06:58.667Z,6.19
2019-03-28T04:09:02.972Z,6.22
2019-03-28T04:11:07.289Z,6.22
2019-03-28T04:13:11.534Z,6.19
2019-03-28T04:15:15.781Z,6.14
2019-03-28T04:17:20.048Z,6.15
2019-03-28T04:19:24.318Z,6.16
2019-03-28T04:21:28.590Z,6.13
2019-03-28T04:23:32.859Z,6.09
2019-03-28T04:25:37.187Z,6.06
2019-03-28T04:27:41.415Z,6.06
2019-03-28T04:29:46.235Z,6.05
2019-03-28T04:31:50.557Z,6.00
2019-03-28T04:33:54.806Z,5.98
2019-03-28T04:35:59.115Z,6.00
2019-03-28T04:38:03.378Z,6.04
2019-03-28T04:40:08.776Z,6.06
2019-03-28T04:42:13.306Z,6.05
2019-03-28T04:44:17.580Z,6.03
2019-03-28T04:46:21.847Z,6.02
2019-03-28T04:48:26.141Z,5.96
2019-03-28T04:50:30.443Z,5.94
2019-03-28T04:52:34.676Z,5.93
2019-03-28T04:54:38.950Z,5.91
2019-03-28T04:56:43.204Z,5.88
2019-03-28T04:58:47.433Z,5.88
2019-03-28T05:00:51.715Z,5.90
2019-03-28T05:02:56.149Z,5.93
2019-03-28T05:05:00.418Z,5.95
2019-03-28T05:07:04.606Z,5.99
2019-03-28T05:09:08.852Z,6.00
2019-03-28T05:11:13.109Z,6.02
2019-03-28T05:13:17.365Z,6.07
2019-03-28T05:15:21.893Z,6.13
2019-03-28T05:17:26.125Z,6.17
2019-03-28T05:19:30.390Z,6.22
2019-03-28T05:21:34.722Z,6.25
2019-03-28T05:23:39.039Z,6.29
2019-03-28T05:25:43.787Z,6.29
2019-03-28T05:27:48.496Z,6.31
2019-03-28T05:29:53.680Z,6.30
2019-03-28T05:31:58.030Z,6.32
2019-03-28T05:34:02.271Z,6.34
2019-03-28T05:36:06.602Z,6.35
2019-03-28T05:38:10.858Z,6.33
2019-03-28T05:40:15.271Z,6.30
2019-03-28T05:42:19.541Z,6.30
2019-03-28T05:44:23.781Z,6.30
2019-03-28T05:46:28.066Z,6.32
2019-03-28T05:48:32.311Z,6.40
2019-03-28T05:50:36.570Z,6.46
2019-03-28T05:52:40.886Z,6.49
2019-03-28T05:54:45.140Z,6.53
2019-03-28T05:56:49.417Z,6.55
2019-03-28T05:58:54.241Z,6.60
2019-03-28T06:00:58.681Z,6.65
2019-03-28T06:03:02.952Z,6.71
2019-03-28T06:05:07.404Z,6.75
2019-03-28T06:07:11.647Z,6.82
2019-03-28T06:09:15.892Z,6.92
2019-03-28T06:11:20.128Z,7.06
2019-03-28T06:13:24.504Z,7.23
2019-03-28T06:15:28.749Z,7.36
2019-03-28T06:17:33.062Z,7.48
2019-03-28T06:19:38.342Z,7.59
2019-03-28T06:21:42.643Z,7.65
2019-03-28T06:23:46.870Z,7.71
2019-03-28T06:25:51.124Z,7.73
2019-03-28T06:27:55.384Z,7.75
2019-03-28T06:30:02.057Z,7.79
2019-03-28T06:32:05.656Z,7.83
2019-03-28T06:34:09.902Z,7.89
2019-03-28T06:36:14.421Z,8.01
2019-03-28T06:38:18.728Z,8.19
2019-03-28T06:40:22.996Z,8.37
2019-03-28T06:42:27.361Z,8.58
2019-03-28T06:44:31.625Z,8.74
2019-03-28T06:46:35.880Z,8.90
2019-03-28T06:48:40.143Z,8.94
2019-03-28T06:50:44.412Z,9.08
2019-03-28T06:52:48.672Z,9.36
2019-03-28T06:54:53.098Z,10.04
2019-03-28T06:56:57.340Z,11.00
2019-03-28T06:59:01.589Z,11.48
2019-03-28T07:01:05.952Z,11.68
2019-03-28T07:03:10.213Z,11.44
2019-03-28T07:05:14.591Z,11.30
2019-03-28T07:07:18.836Z,11.21
2019-03-28T07:09:23.121Z,11.04
2019-03-28T07:11:28.454Z,10.94
2019-03-28T07:13:32.662Z,10.94
2019-03-28T07:15:39.042Z,10.85
2019-03-28T07:17:43.367Z,10.60
2019-03-28T07:19:47.619Z,10.48
2019-03-28T07:21:51.885Z,10.43
2019-03-28T07:23:56.127Z,10.36
2019-03-28T07:26:01.415Z,10.28
2019-03-28T07:28:06.561Z,10.24
2019-03-28T07:30:12.609Z,10.14
2019-03-28T07:32:16.930Z,10.05
2019-03-28T07:34:21.180Z,10.02
2019-03-28T07:36:25.435Z,9.95
2019-03-28T07:38:29.758Z,9.99
2019-03-28T07:40:34.011Z,10.05
2019-03-28T07:42:38.260Z,10.10
2019-03-28T07:44:42.499Z,10.15
2019-03-28T07:46:47.766Z,10.23
2019-03-28T07:48:52.109Z,10.27
2019-03-28T07:50:56.360Z,10.33
2019-03-28T07:53:00.611Z,10.51
2019-03-28T07:55:05.699Z,10.72
2019-03-28T07:57:10.123Z,10.93
2019-03-28T07:59:14.440Z,11.15
2019-03-28T08:01:18.690Z,11.35
2019-03-28T08:03:22.934Z,11.38
2019-03-28T08:05:27.200Z,11.56
2019-03-28T08:07:43.934Z,11.87
2019-03-28T08:09:37.717Z,12.08
2019-03-28T08:11:42.245Z,12.06
2019-03-28T08:13:46.482Z,11.91
2019-03-28T08:15:50.744Z,11.81
2019-03-28T08:17:54.995Z,11.75
2019-03-28T08:19:59.235Z,11.69
2019-03-28T08:22:03.508Z,11.64
2019-03-28T08:24:07.918Z,11.68
2019-03-28T08:26:13.205Z,11.77
2019-03-28T08:28:17.456Z,11.87
2019-03-28T08:30:33.867Z,12.09
2019-03-28T08:32:39.829Z,12.38
2019-03-28T08:34:44.768Z,12.73
2019-03-28T08:36:50.974Z,13.10
2019-03-28T08:38:56.699Z,13.52
2019-03-28T08:41:00.942Z,13.91
2019-03-28T08:43:06.335Z,14.48
2019-03-28T08:45:10.874Z,15.14
2019-03-28T08:47:15.135Z,15.55
2019-03-28T08:49:19.371Z,15.54
2019-03-28T08:51:23.622Z,15.46
2019-03-28T08:53:27.933Z,15.36
2019-03-28T08:55:32.252Z,15.24
2019-03-28T08:57:36.506Z,15.17
2019-03-28T08:59:43.801Z,15.04
2019-03-28T09:01:48.064Z,14.98
2019-03-28T09:03:52.311Z,14.97
2019-03-28T09:05:57.101Z,14.92
2019-03-28T09:08:01.411Z,14.91
2019-03-28T09:10:06.158Z,14.83
2019-03-28T09:12:10.416Z,14.78
2019-03-28T09:14:14.750Z,14.68
2019-03-28T09:16:19.132Z,14.69
2019-03-28T09:18:32.544Z,14.71
2019-03-28T09:20:36.782Z,14.83
2019-03-28T09:22:41.046Z,15.03
2019-03-28T09:24:45.307Z,15.20
2019-03-28T09:26:49.534Z,15.28
2019-03-28T09:28:55.501Z,15.49
2019-03-28T09:30:59.836Z,15.62
2019-03-28T09:33:04.464Z,15.58
2019-03-28T09:35:10.351Z,15.30
2019-03-28T09:37:14.740Z,15.26
2019-03-28T09:39:18.991Z,15.36
2019-03-28T09:41:23.242Z,15.36
2019-03-28T09:43:27.499Z,15.25
2019-03-28T09:45:31.911Z,15.32
2019-03-28T09:47:36.171Z,15.47
2019-03-28T09:49:40.418Z,15.65
2019-03-28T09:51:44.749Z,15.98
2019-03-28T09:53:49.037Z,16.23
2019-03-28T09:55:53.289Z,16.44
2019-03-28T09:57:57.704Z,17.29
2019-03-28T10:00:01.953Z,18.34
2019-03-28T10:02:06.372Z,19.46
2019-03-28T10:04:10.650Z,20.53
2019-03-28T10:06:14.982Z,21.62
2019-03-28T10:08:19.314Z,22.72
2019-03-28T10:10:23.652Z,22.82
2019-03-28T10:12:27.996Z,22.60
2019-03-28T10:14:32.246Z,22.43
2019-03-28T10:16:40.172Z,22.60
2019-03-28T10:18:43.051Z,23.12
2019-03-28T10:20:47.330Z,23.15
2019-03-28T10:22:51.606Z,23.06
2019-03-28T10:24:55.844Z,22.88
2019-03-28T10:27:00.173Z,22.65
2019-03-28T10:29:04.622Z,22.37
2019-03-28T10:31:16.348Z,21.96
2019-03-28T10:33:14.975Z,21.62
2019-03-28T10:35:28.798Z,21.43
2019-03-28T10:37:33.074Z,21.18
2019-03-28T10:39:39.425Z,20.93
2019-03-28T10:41:43.736Z,20.57
2019-03-28T10:43:48.186Z,20.40
2019-03-28T10:45:52.585Z,20.39
2019-03-28T10:47:56.890Z,20.42
2019-03-28T10:50:04.006Z,20.35
2019-03-28T10:52:07.272Z,20.30
2019-03-28T10:54:20.072Z,20.12
2019-03-28T10:56:21.996Z,19.78
2019-03-28T10:58:24.654Z,19.52
2019-03-28T11:00:32.473Z,19.54
2019-03-28T11:02:36.777Z,19.73
2019-03-28T11:04:41.155Z,19.74
2019-03-28T11:06:45.432Z,19.83
2019-03-28T11:08:49.780Z,20.02
2019-03-28T11:10:54.144Z,20.05
2019-03-28T11:12:58.578Z,20.35
2019-03-28T11:15:02.961Z,20.84
2019-03-28T11:17:07.337Z,21.45
2019-03-28T11:19:11.711Z,22.14
2019-03-28T11:21:16.160Z,22.51
2019-03-28T11:23:20.500Z,22.64
2019-03-28T11:25:25.201Z,22.72
2019-03-28T11:27:29.520Z,22.73
2019-03-28T11:29:34.013Z,22.53
2019-03-28T11:31:46.155Z,22.09
2019-03-28T11:33:44.288Z,21.95
2019-03-28T11:35:48.563Z,21.58
2019-03-28T11:37:52.939Z,21.24
2019-03-28T11:39:57.285Z,20.84
2019-03-28T11:42:02.072Z,20.43
2019-03-28T11:44:06.530Z,20.19
2019-03-28T11:46:10.834Z,20.01
2019-03-28T11:48:15.223Z,19.86
2019-03-28T11:50:19.711Z,19.72
2019-03-28T11:52:24.072Z,19.67
2019-03-28T11:54:28.365Z,19.70
2019-03-28T11:56:32.655Z,19.61
2019-03-28T11:58:37.043Z,19.70
2019-03-28T12:00:41.416Z,19.77
2019-03-28T12:02:45.749Z,19.76
2019-03-28T12:04:50.145Z,19.78
2019-03-28T12:06:54.518Z,19.65
2019-03-28T12:08:58.849Z,19.54
2019-03-28T12:11:03.161Z,19.44
2019-03-28T12:13:07.467Z,19.28
2019-03-28T12:15:12.460Z,19.14
2019-03-28T12:17:16.749Z,18.90
2019-03-28T12:19:21.055Z,18.73
2019-03-28T12:21:25.424Z,18.62
2019-03-28T12:23:30.657Z,18.52
2019-03-28T12:25:35.396Z,18.40
2019-03-28T12:27:39.795Z,18.33
2019-03-28T12:29:44.166Z,18.29
2019-03-28T12:31:48.462Z,18.15
2019-03-28T12:33:52.811Z,18.04
2019-03-28T12:35:57.126Z,17.98
2019-03-28T12:38:02.055Z,17.90
2019-03-28T12:40:07.650Z,17.78
2019-03-28T12:42:12.104Z,17.63
2019-03-28T12:44:16.465Z,17.64
2019-03-28T12:46:20.822Z,17.59
2019-03-28T12:48:25.135Z,17.71
2019-03-28T12:50:29.508Z,17.89
2019-03-28T12:52:33.790Z,18.02
2019-03-28T12:54:38.113Z,18.17
2019-03-28T12:56:42.477Z,18.31
2019-03-28T12:58:46.767Z,18.42
2019-03-28T13:00:51.067Z,18.53
2019-03-28T13:02:55.359Z,18.57
2019-03-28T13:04:59.650Z,18.60
2019-03-28T13:07:04.034Z,18.61
2019-03-28T13:09:10.180Z,18.50
2019-03-28T13:11:14.857Z,18.43
2019-03-28T13:13:19.162Z,18.35
2019-03-28T13:15:23.513Z,18.13
2019-03-28T13:17:27.833Z,18.03
2019-03-28T13:19:32.187Z,18.05
2019-03-28T13:21:36.475Z,17.97
2019-03-28T13:23:40.781Z,17.97
2019-03-28T13:25:45.057Z,17.97
2019-03-28T13:27:49.353Z,17.98
2019-03-28T13:29:55.085Z,18.05
2019-03-28T13:31:59.433Z,18.11
2019-03-28T13:34:03.824Z,18.21
2019-03-28T13:36:08.096Z,18.36
2019-03-28T13:38:12.415Z,18.43
2019-03-28T13:40:16.883Z,18.49
2019-03-28T13:42:23.507Z,18.60
2019-03-28T13:44:30.110Z,18.70
2019-03-28T13:46:33.216Z,18.66
2019-03-28T13:48:37.508Z,18.67
2019-03-28T13:50:41.798Z,18.74
2019-03-28T13:52:46.091Z,18.69
2019-03-28T13:54:52.954Z,18.61
2019-03-28T13:56:56.404Z,18.61
2019-03-28T13:59:00.708Z,18.70
2019-03-28T14:01:05.097Z,18.83
2019-03-28T14:03:09.395Z,18.95
2019-03-28T14:05:13.866Z,19.02
2019-03-28T14:07:18.169Z,19.07
2019-03-28T14:09:23.491Z,19.03
2019-03-28T14:11:27.977Z,18.99
2019-03-28T14:13:32.336Z,18.93
2019-03-28T14:15:36.647Z,18.89
2019-03-28T14:17:40.947Z,18.85
2019-03-28T14:19:45.226Z,18.95
2019-03-28T14:21:49.576Z,19.09
2019-03-28T14:23:53.862Z,19.16
2019-03-28T14:25:58.164Z,18.94
2019-03-28T14:28:02.457Z,18.89
2019-03-28T14:30:09.727Z,18.89
2019-03-28T14:32:14.182Z,18.94
2019-03-28T14:34:18.475Z,19.08
2019-03-28T14:36:25.228Z,19.13
2019-03-28T14:38:28.785Z,19.15
2019-03-28T14:40:33.086Z,19.20
2019-03-28T14:42:37.468Z,19.18
2019-03-28T14:44:41.775Z,19.17
2019-03-28T14:46:46.066Z,19.16
2019-03-28T14:48:50.378Z,19.10
2019-03-28T14:50:55.870Z,18.95
2019-03-28T14:53:00.157Z,18.83
2019-03-28T14:55:04.791Z,18.64
2019-03-28T14:57:09.817Z,18.50
2019-03-28T14:59:15.362Z,18.28
2019-03-28T15:01:19.659Z,18.03
2019-03-28T15:03:26.928Z,17.85
2019-03-28T15:05:31.117Z,17.75
2019-03-28T15:07:35.425Z,17.69
2019-03-28T15:09:39.815Z,17.66
2019-03-28T15:11:44.096Z,17.66
2019-03-28T15:13:48.409Z,17.63
2019-03-28T15:15:52.781Z,17.64
2019-03-28T15:17:57.169Z,17.60
2019-03-28T15:20:01.635Z,17.53
2019-03-28T15:22:06.130Z,17.40
2019-03-28T15:24:10.408Z,17.35
2019-03-28T15:26:14.690Z,17.32
2019-03-28T15:28:18.971Z,17.30
2019-03-28T15:30:23.272Z,17.26
2019-03-28T15:32:27.546Z,17.22
2019-03-28T15:34:31.859Z,17.11
2019-03-28T15:36:36.149Z,17.07
2019-03-28T15:38:40.534Z,17.04
2019-03-28T15:40:44.939Z,16.93
2019-03-28T15:42:49.303Z,16.84
2019-03-28T15:44:53.584Z,16.81
2019-03-28T15:46:57.871Z,16.75
2019-03-28T15:49:02.225Z,16.62
2019-03-28T15:51:06.654Z,16.54
2019-03-28T15:53:10.946Z,16.45
2019-03-28T15:55:15.246Z,16.33
2019-03-28T15:57:19.605Z,16.24
2019-03-28T15:59:23.891Z,16.19
2019-03-28T16:01:28.325Z,16.15
2019-03-28T16:03:32.654Z,16.07
2019-03-28T16:05:37.127Z,16.04
2019-03-28T16:07:41.481Z,16.01
2019-03-28T16:09:46.660Z,15.97
2019-03-28T16:12:02.088Z,15.98
2019-03-28T16:13:57.074Z,16.02
2019-03-28T16:16:02.638Z,16.04
2019-03-28T16:18:06.932Z,16.05
2019-03-28T16:20:11.872Z,16.04
2019-03-28T16:22:16.180Z,16.02
2019-03-28T16:24:20.463Z,16.00
2019-03-28T16:26:24.771Z,15.97
2019-03-28T16:28:29.053Z,15.93
2019-03-28T16:30:37.812Z,15.86
2019-03-28T16:32:42.116Z,15.83
2019-03-28T16:34:46.474Z,15.79
2019-03-28T16:36:50.864Z,15.75
2019-03-28T16:38:55.184Z,15.74
2019-03-28T16:40:59.489Z,15.74
2019-03-28T16:43:03.857Z,15.73
2019-03-28T16:45:08.687Z,15.74
2019-03-28T16:47:12.976Z,15.74
2019-03-28T16:49:17.264Z,15.74
2019-03-28T16:51:21.649Z,15.75
2019-03-28T16:53:25.936Z,15.75
2019-03-28T16:55:30.294Z,15.74
2019-03-28T16:57:34.611Z,15.71
2019-03-28T16:59:38.900Z,15.66
2019-03-28T17:01:43.364Z,15.60
2019-03-28T17:03:47.682Z,15.56
2019-03-28T17:05:51.982Z,15.52
2019-03-28T17:07:56.519Z,15.50
2019-03-28T17:10:01.569Z,15.46
2019-03-28T17:12:06.102Z,15.39
2019-03-28T17:14:10.486Z,15.34
2019-03-28T17:16:15.158Z,15.32
2019-03-28T17:18:19.614Z,15.30
2019-03-28T17:20:23.912Z,15.28
2019-03-28T17:22:28.205Z,15.24
2019-03-28T17:24:32.507Z,15.20
2019-03-28T17:26:36.802Z,15.19
2019-03-28T17:28:41.108Z,15.15
2019-03-28T17:30:45.579Z,15.14
2019-03-28T17:32:49.868Z,15.11
2019-03-28T17:34:54.152Z,15.07
2019-03-28T17:36:58.455Z,15.03
2019-03-28T17:39:02.931Z,15.01
2019-03-28T17:41:07.266Z,14.98
2019-03-28T17:43:11.833Z,14.98
2019-03-28T17:45:16.230Z,14.97
2019-03-28T17:47:20.530Z,14.95
2019-03-28T17:49:25.905Z,14.91
2019-03-28T17:51:30.306Z,14.90
2019-03-28T17:53:34.661Z,14.86
2019-03-28T17:55:39.037Z,14.82
2019-03-28T17:57:43.355Z,14.79
2019-03-28T17:59:47.628Z,14.72
2019-03-28T18:01:52.812Z,14.65
2019-03-28T18:03:57.106Z,14.60
2019-03-28T18:06:01.380Z,14.54
2019-03-28T18:08:05.742Z,14.49
2019-03-28T18:10:10.420Z,14.43
2019-03-28T18:12:15.322Z,14.36
2019-03-28T18:14:19.610Z,14.29
2019-03-28T18:16:23.909Z,14.23
2019-03-28T18:18:28.207Z,14.18
2019-03-28T18:20:32.653Z,14.14
2019-03-28T18:22:36.979Z,14.12
2019-03-28T18:24:41.827Z,14.12
2019-03-28T18:26:46.141Z,14.12
2019-03-28T18:28:50.440Z,14.11
2019-03-28T18:30:54.787Z,14.10
2019-03-28T18:32:59.245Z,14.09
2019-03-28T18:35:05.576Z,14.07
2019-03-28T18:37:09.866Z,14.04
2019-03-28T18:39:14.161Z,14.03
2019-03-28T18:41:18.440Z,14.00
2019-03-28T18:43:23.673Z,14.01
2019-03-28T18:45:28.008Z,13.98
2019-03-28T18:47:32.316Z,13.94
2019-03-28T18:49:36.610Z,13.86
2019-03-28T18:51:40.902Z,13.78
2019-03-28T18:53:45.185Z,13.70
2019-03-28T18:55:49.504Z,13.63
2019-03-28T18:57:53.810Z,13.54
2019-03-28T18:59:59.276Z,13.49
2019-03-28T19:02:03.914Z,13.44
2019-03-28T19:04:08.198Z,13.39
2019-03-28T19:06:14.918Z,13.34
2019-03-28T19:08:18.704Z,13.29
2019-03-28T19:10:23.087Z,13.24
2019-03-28T19:12:27.383Z,13.19
2019-03-28T19:14:31.999Z,13.16
2019-03-28T19:16:36.333Z,13.14
2019-03-28T19:18:40.634Z,13.12
2019-03-28T19:20:44.917Z,13.11
2019-03-28T19:22:50.321Z,13.12
2019-03-28T19:24:54.675Z,13.10
2019-03-28T19:26:59.140Z,13.11
2019-03-28T19:29:03.552Z,13.15
2019-03-28T19:31:07.926Z,13.16
2019-03-28T19:33:12.303Z,13.18
2019-03-28T19:35:16.686Z,13.18
2019-03-28T19:37:23.954Z,13.18
2019-03-28T19:39:31.025Z,13.17
2019-03-28T19:41:35.315Z,13.16
2019-03-28T19:43:39.979Z,13.15
2019-03-28T19:45:45.293Z,13.14
2019-03-28T19:47:49.592Z,13.12
2019-03-28T19:49:53.905Z,13.11
2019-03-28T19:51:58.193Z,13.11
2019-03-28T19:54:02.569Z,13.05
2019-03-28T19:56:06.862Z,13.04
2019-03-28T19:58:13.517Z,13.03
2019-03-28T20:00:18.032Z,13.03
2019-03-28T20:02:22.420Z,13.00
2019-03-28T20:04:26.842Z,12.98
2019-03-28T20:06:33.242Z,12.98
2019-03-28T20:08:37.544Z,12.98
2019-03-28T20:10:41.929Z,12.97
2019-03-28T20:12:46.206Z,12.97
2019-03-28T20:14:50.540Z,12.96
2019-03-28T20:16:54.824Z,12.95
2019-03-28T20:18:59.187Z,12.92
2019-03-28T20:21:03.486Z,12.89
2019-03-28T20:23:07.940Z,12.87
2019-03-28T20:25:12.422Z,12.85
2019-03-28T20:27:16.706Z,12.83
2019-03-28T20:29:21.010Z,12.83
2019-03-28T20:31:25.820Z,12.80
2019-03-28T20:33:30.185Z,12.75
2019-03-28T20:35:34.526Z,12.67
2019-03-28T20:37:38.868Z,12.56
2019-03-28T20:39:43.179Z,12.44
2019-03-28T20:41:47.469Z,12.36
2019-03-28T20:43:52.358Z,12.29
2019-03-28T20:45:57.301Z,12.19
2019-03-28T20:48:01.615Z,12.09
2019-03-28T20:50:06.724Z,12.02
2019-03-28T20:52:11.016Z,11.92
2019-03-28T20:54:15.314Z,11.81
2019-03-28T20:56:20.785Z,11.70
2019-03-28T20:58:25.080Z,11.59
2019-03-28T21:00:39.123Z,11.48
2019-03-28T21:02:43.622Z,11.41
2019-03-28T21:04:48.077Z,11.33
2019-03-28T21:06:53.648Z,11.26
2019-03-28T21:08:58.099Z,11.19
2019-03-28T21:11:02.398Z,11.09
2019-03-28T21:13:07.692Z,11.02
2019-03-28T21:15:12.054Z,10.93
2019-03-28T21:17:16.332Z,10.87
2019-03-28T21:19:20.644Z,10.81
2019-03-28T21:21:26.931Z,10.71
2019-03-28T21:23:31.225Z,10.60
2019-03-28T21:25:35.473Z,10.48
2019-03-28T21:27:39.785Z,10.37
2019-03-28T21:29:49.193Z,10.30
2019-03-28T21:31:51.310Z,10.28
2019-03-28T21:33:56.085Z,10.26
2019-03-28T21:36:00.338Z,10.20
2019-03-28T21:38:04.569Z,10.15
2019-03-28T21:40:09.110Z,10.11
2019-03-28T21:42:13.373Z,10.03
2019-03-28T21:44:17.700Z,9.97
2019-03-28T21:46:21.968Z,9.93
2019-03-28T21:48:26.222Z,9.84
2019-03-28T21:50:30.466Z,9.79
2019-03-28T21:52:34.783Z,9.70
2019-03-28T21:54:39.066Z,9.59
2019-03-28T21:56:43.322Z,9.55
2019-03-28T21:58:47.577Z,9.54
2019-03-28T22:00:51.978Z,9.52
2019-03-28T22:02:56.283Z,9.50
2019-03-28T22:05:01.549Z,9.45
2019-03-28T22:07:05.853Z,9.38
2019-03-28T22:09:10.118Z,9.33
2019-03-28T22:11:14.446Z,9.30
2019-03-28T22:13:18.725Z,9.20
2019-03-28T22:15:22.973Z,9.12
2019-03-28T22:17:27.321Z,9.09
2019-03-28T22:19:31.930Z,9.06
2019-03-28T22:21:36.271Z,9.04
2019-03-28T22:23:40.963Z,9.01
2019-03-28T22:25:45.313Z,8.97
2019-03-28T22:27:49.712Z,8.88
2019-03-28T22:29:53.995Z,8.81
2019-03-28T22:31:58.324Z,8.73
2019-03-28T22:34:02.575Z,8.71
2019-03-28T22:36:06.818Z,8.72
2019-03-28T22:38:11.062Z,8.68
2019-03-28T22:40:15.454Z,8.63
2019-03-28T22:42:19.716Z,8.63
2019-03-28T22:44:24.248Z,8.60
2019-03-28T22:46:29.121Z,8.56
2019-03-28T22:48:33.432Z,8.53
2019-03-28T22:50:37.776Z,8.51
2019-03-28T22:52:42.010Z,8.43
2019-03-28T22:54:46.249Z,8.38
2019-03-28T22:56:50.519Z,8.36
2019-03-28T22:58:54.833Z,8.29
2019-03-28T23:00:59.226Z,8.26
2019-03-28T23:03:04.319Z,8.24
2019-03-28T23:05:09.310Z,8.22
2019-03-28T23:07:13.915Z,8.20
2019-03-28T23:09:18.887Z,8.16
2019-03-28T23:11:23.220Z,8.15
2019-03-28T23:13:27.464Z,8.12
2019-03-28T23:15:31.792Z,8.08
2019-03-28T23:17:36.035Z,8.04
2019-03-28T23:19:40.286Z,7.96
2019-03-28T23:21:44.581Z,7.85
2019-03-28T23:23:48.838Z,7.83
2019-03-28T23:25:53.080Z,7.81
2019-03-28T23:27:57.338Z,7.79
2019-03-28T23:30:02.882Z,7.74
2019-03-28T23:32:07.200Z,7.66
2019-03-28T23:34:11.483Z,7.61
2019-03-28T23:36:15.757Z,7.56
2019-03-28T23:38:20.193Z,7.52
2019-03-28T23:40:26.303Z,7.44
2019-03-28T23:42:30.368Z,7.40
2019-03-28T23:44:34.703Z,7.35
2019-03-28T23:46:38.957Z,7.30
2019-03-28T23:48:43.236Z,7.21
2019-03-28T23:50:47.478Z,7.17
2019-03-28T23:52:51.758Z,7.10
2019-03-28T23:54:55.997Z,7.03
2019-03-28T23:57:00.254Z,6.99
2019-03-28T23:59:04.708Z,6.98
